Terminal Aerodrome Forecast
Issued by NWS Wilmington, NC

Home | Current Version | Previous Version | Text Only | Print | Product List | Glossary On
Versions: 1 2 3 4 5 6 7 8 9 10 11 12 13 14 15 16 17
000
FTUS42 KILM 310520
TAFLBT
TAF
KLBT 310520Z 3106/0106 VRB05KT P6SM SCT150
      TEMPO 3110/3112 5SM BR
     FM311600 23007KT P6SM VCTS FEW020CB SCT050
     FM010000 18004KT 6SM HZ BKN250=

USA.gov is the U.S. government's official web portal to all federal, state and local government web resources and services.